Time;durP1;ratioP1;P1;durP2;ratioP2;P2;SDS_P1;SDS_P2;PMS_P1;PMS_P2;Temp;Humidity;BMP_temperature;BMP_pressure;BME280_temperature;BME280_humidity;BME280_pressure;Samples;Min_cycle;Max_cycle;Signal;HPM_P1;HPM_P2
2022/01/07 00:02:45;;;;;;;41.90;18.63;;;0.50;99.90;;;;;;4946102;29;20672;-72
2022/01/07 00:05:31;;;;;;;28.98;16.70;;;0.60;99.90;;;;;;4945924;29;20211;-72
2022/01/07 00:08:17;;;;;;;29.95;19.05;;;0.60;99.90;;;;;;4949418;29;20590;-71
2022/01/07 00:11:03;;;;;;;26.80;15.93;;;0.70;99.90;;;;;;4938169;29;20208;-72
2022/01/07 00:13:49;;;;;;;31.90;17.52;;;0.60;99.90;;;;;;4948387;28;20693;-74
2022/01/07 00:16:34;;;;;;;40.08;18.35;;;0.60;99.90;;;;;;4952635;28;20220;-75
2022/01/07 00:19:21;;;;;;;34.22;16.23;;;0.70;99.90;;;;;;4944856;29;20226;-74
2022/01/07 00:22:07;;;;;;;32.05;17.00;;;0.80;99.90;;;;;;4952596;29;20200;-74
2022/01/07 00:24:53;;;;;;;26.17;15.55;;;0.90;99.90;;;;;;4952302;29;20208;-74
2022/01/07 00:27:39;;;;;;;30.85;16.10;;;0.80;99.90;;;;;;4947637;28;20591;-74
2022/01/07 00:30:25;;;;;;;24.60;16.42;;;0.80;99.90;;;;;;4949322;28;20217;-74
2022/01/07 00:33:11;;;;;;;28.27;16.60;;;0.70;99.90;;;;;;4949715;29;20721;-74
2022/01/07 00:35:59;;;;;;;27.75;18.35;;;0.60;99.90;;;;;;4951666;28;20336;-74
2022/01/07 00:38:44;;;;;;;36.88;18.00;;;0.30;99.90;;;;;;4950197;29;20211;-74
2022/01/07 00:41:31;;;;;;;35.72;19.90;;;0.30;99.90;;;;;;4952245;29;20204;-74
2022/01/07 00:44:16;;;;;;;33.78;17.45;;;0.20;99.90;;;;;;4953597;29;20570;-74
2022/01/07 00:47:02;;;;;;;27.42;18.98;;;0.20;99.90;;;;;;4950286;28;20235;-74
2022/01/07 00:49:48;;;;;;;29.42;17.30;;;0.30;99.90;;;;;;4953312;29;20332;-74
2022/01/07 00:52:35;;;;;;;29.15;17.50;;;0.40;99.90;;;;;;4952869;29;20325;-74
2022/01/07 00:55:21;;;;;;;29.73;16.98;;;0.50;99.90;;;;;;4948968;28;20320;-74
2022/01/07 00:58:07;;;;;;;23.92;15.23;;;0.60;99.90;;;;;;4948633;28;20239;-74
2022/01/07 01:00:52;;;;;;;33.40;17.52;;;0.50;99.90;;;;;;4946598;29;20722;-73
2022/01/07 01:03:38;;;;;;;32.25;17.70;;;0.60;99.90;;;;;;4951558;29;20681;-74
2022/01/07 01:06:23;;;;;;;28.83;15.30;;;0.70;99.90;;;;;;4948722;28;20232;-74
2022/01/07 01:09:11;;;;;;;25.83;14.23;;;0.80;99.90;;;;;;4944685;28;20212;-74
2022/01/07 01:11:57;;;;;;;29.83;15.07;;;0.90;99.90;;;;;;4953152;29;20216;-74
2022/01/07 01:14:43;;;;;;;21.27;12.73;;;0.90;99.90;;;;;;4949144;29;20336;-74
2022/01/07 01:17:29;;;;;;;25.20;13.95;;;0.90;99.90;;;;;;4947777;29;20236;-74
2022/01/07 01:20:14;;;;;;;24.77;13.18;;;0.80;99.90;;;;;;4944433;29;20333;-74
2022/01/07 01:23:00;;;;;;;23.92;13.98;;;0.90;99.90;;;;;;4951368;29;20204;-74
2022/01/07 01:25:47;;;;;;;30.10;14.70;;;0.90;99.90;;;;;;4949968;29;20762;-74
2022/01/07 01:28:33;;;;;;;21.98;13.75;;;1.00;99.90;;;;;;4946398;29;20224;-74
2022/01/07 01:31:18;;;;;;;20.95;13.10;;;0.80;99.90;;;;;;4944173;29;20735;-74
2022/01/07 01:34:05;;;;;;;24.35;13.88;;;0.90;99.90;;;;;;4949383;28;20978;-74
2022/01/07 01:36:50;;;;;;;21.33;13.52;;;1.00;99.90;;;;;;4946552;28;20219;-73
2022/01/07 01:39:36;;;;;;;24.05;15.07;;;1.00;99.90;;;;;;4950707;29;20208;-74
2022/01/07 01:42:23;;;;;;;26.98;14.20;;;1.10;99.90;;;;;;4951125;28;20268;-74
2022/01/07 01:45:11;;;;;;;25.48;13.43;;;1.10;99.90;;;;;;4950616;29;20280;-74
2022/01/07 01:47:57;;;;;;;20.83;13.13;;;1.10;99.90;;;;;;4950999;28;20591;-74
2022/01/07 01:50:43;;;;;;;23.70;15.10;;;1.00;99.90;;;;;;4951840;29;20578;-74
2022/01/07 01:53:30;;;;;;;27.55;14.98;;;1.10;99.90;;;;;;4951589;29;20227;-74
2022/01/07 01:56:16;;;;;;;21.85;13.60;;;0.90;99.90;;;;;;4949633;28;20634;-74
2022/01/07 01:59:03;;;;;;;36.03;16.92;;;1.00;99.90;;;;;;4952388;28;20328;-74
2022/01/07 02:01:48;;;;;;;21.63;14.50;;;1.00;99.90;;;;;;4954583;28;20208;-74
2022/01/07 02:04:36;;;;;;;27.83;16.25;;;1.00;99.90;;;;;;4952765;29;20252;-74
2022/01/07 02:07:25;;;;;;;25.10;15.82;;;1.00;99.90;;;;;;4948979;28;20296;-73
2022/01/07 02:10:13;;;;;;;23.10;15.20;;;1.00;99.90;;;;;;4947326;29;20670;-74
2022/01/07 02:12:59;;;;;;;36.75;15.77;;;1.00;99.90;;;;;;4954236;29;20367;-74
2022/01/07 02:15:47;;;;;;;31.60;16.50;;;1.00;99.90;;;;;;4951807;28;20276;-74
2022/01/07 02:18:32;;;;;;;33.75;18.00;;;1.10;99.90;;;;;;4951224;29;20219;-74
2022/01/07 02:21:19;;;;;;;29.25;17.00;;;1.10;99.90;;;;;;4951785;29;20211;-74
2022/01/07 02:24:06;;;;;;;29.85;14.93;;;0.90;99.90;;;;;;4954538;29;20196;-74
2022/01/07 02:26:52;;;;;;;26.48;15.75;;;0.90;99.90;;;;;;4951300;28;20725;-74
2022/01/07 02:29:37;;;;;;;28.75;17.17;;;0.70;99.90;;;;;;4954470;28;20296;-74
2022/01/07 02:32:23;;;;;;;27.42;17.10;;;0.60;99.90;;;;;;4946607;28;20733;-74
2022/01/07 02:35:09;;;;;;;31.10;16.83;;;0.70;99.90;;;;;;4952531;28;20580;-74
2022/01/07 02:37:57;;;;;;;28.98;16.95;;;0.80;99.90;;;;;;4950955;29;20698;-74
2022/01/07 02:40:43;;;;;;;32.45;16.80;;;0.90;99.90;;;;;;4954041;28;20211;-73
2022/01/07 02:43:28;;;;;;;28.58;15.50;;;0.90;99.90;;;;;;4952760;28;20238;-74
2022/01/07 02:46:14;;;;;;;27.55;16.80;;;1.00;99.90;;;;;;4951500;28;20229;-74
2022/01/07 02:49:07;;;;;;;28.80;17.23;;;0.90;99.90;;;;;;4953973;29;20340;-74
2022/01/07 02:51:53;;;;;;;28.85;18.15;;;0.90;99.90;;;;;;4951629;29;20323;-74
2022/01/07 02:54:40;;;;;;;36.75;17.85;;;0.90;99.90;;;;;;4953074;28;20208;-73
2022/01/07 02:57:25;;;;;;;26.20;16.83;;;0.80;99.90;;;;;;4952107;28;20606;-74
2022/01/07 03:00:13;;;;;;;31.83;16.75;;;0.70;99.90;;;;;;4945825;29;20295;-74
2022/01/07 03:03:00;;;;;;;35.58;18.17;;;0.60;99.90;;;;;;4952304;29;20200;-74
2022/01/07 03:05:45;;;;;;;34.72;19.60;;;0.60;99.90;;;;;;4948338;29;20263;-74
2022/01/07 03:08:31;;;;;;;30.35;17.27;;;0.60;99.90;;;;;;4952792;29;20729;-74
2022/01/07 03:11:18;;;;;;;32.72;18.92;;;0.70;99.90;;;;;;4950716;29;20745;-74
2022/01/07 03:14:04;;;;;;;25.98;16.67;;;0.70;99.90;;;;;;4953057;29;20227;-74
2022/01/07 03:16:50;;;;;;;28.48;17.83;;;0.80;99.90;;;;;;4953270;28;20240;-74
2022/01/07 03:19:35;;;;;;;26.40;14.38;;;0.70;99.90;;;;;;4952999;29;20352;-74
2022/01/07 03:22:21;;;;;;;28.55;16.17;;;0.80;99.90;;;;;;4949315;29;20279;-75
2022/01/07 03:25:08;;;;;;;35.40;16.80;;;0.70;99.90;;;;;;4949802;28;20778;-74
2022/01/07 03:27:55;;;;;;;27.25;15.85;;;0.80;99.90;;;;;;4951813;28;20244;-75
2022/01/07 03:30:40;;;;;;;22.60;14.80;;;1.00;99.90;;;;;;4949673;28;20287;-74
2022/01/07 03:33:26;;;;;;;25.52;14.77;;;1.10;99.90;;;;;;4953161;28;20232;-74
2022/01/07 03:36:12;;;;;;;23.17;14.98;;;1.20;99.90;;;;;;4950126;28;20287;-74
2022/01/07 03:39:00;;;;;;;27.27;14.02;;;1.20;99.90;;;;;;4951470;28;20575;-74
2022/01/07 03:41:46;;;;;;;21.70;12.10;;;1.20;99.90;;;;;;4952381;29;20216;-74
2022/01/07 03:44:32;;;;;;;20.35;13.25;;;1.10;99.90;;;;;;4950415;29;20199;-75
2022/01/07 03:47:18;;;;;;;17.85;11.90;;;1.20;99.90;;;;;;4952367;28;20842;-73
2022/01/07 03:50:06;;;;;;;28.17;12.82;;;1.30;99.90;;;;;;4953578;29;20348;-74
2022/01/07 03:52:52;;;;;;;23.88;13.43;;;1.20;99.90;;;;;;4953422;28;20375;-74
2022/01/07 03:55:38;;;;;;;23.67;11.57;;;1.30;99.90;;;;;;4950991;29;20204;-74
2022/01/07 03:58:23;;;;;;;17.83;11.13;;;1.30;99.90;;;;;;4953742;29;20282;-73
2022/01/07 04:01:10;;;;;;;19.08;11.70;;;1.40;99.90;;;;;;4952120;28;20283;-73
2022/01/07 04:03:56;;;;;;;16.08;10.98;;;1.40;99.90;;;;;;4950804;29;20219;-74
2022/01/07 04:06:42;;;;;;;19.75;10.93;;;1.40;99.90;;;;;;4949386;29;20275;-74
2022/01/07 04:09:27;;;;;;;24.33;10.45;;;1.50;99.90;;;;;;4947350;29;20269;-73
2022/01/07 04:12:13;;;;;;;17.80;10.55;;;1.50;99.90;;;;;;4951958;28;20204;-74
2022/01/07 04:15:08;;;;;;;22.85;11.20;;;1.50;99.90;;;;;;4947826;29;20203;-75
2022/01/07 04:17:56;;;;;;;18.48;9.15;;;1.50;99.90;;;;;;4949466;29;20819;-74
2022/01/07 04:20:41;;;;;;;21.02;10.70;;;1.50;99.90;;;;;;4949119;29;20215;-73
2022/01/07 04:23:27;;;;;;;15.10;9.40;;;1.60;99.90;;;;;;4950669;29;20350;-75
2022/01/07 04:26:12;;;;;;;16.25;9.98;;;1.60;99.90;;;;;;4954717;28;20307;-74
2022/01/07 04:28:58;;;;;;;20.15;10.15;;;1.70;99.90;;;;;;4949594;28;20276;-74
2022/01/07 04:31:44;;;;;;;21.48;10.18;;;1.70;99.90;;;;;;4952408;29;20223;-74
2022/01/07 04:34:30;;;;;;;24.98;9.10;;;1.80;99.90;;;;;;4949003;28;20271;-75
2022/01/07 04:37:16;;;;;;;24.02;11.18;;;1.80;99.90;;;;;;4944511;28;20248;-73
2022/01/07 04:40:03;;;;;;;15.70;9.70;;;1.90;99.90;;;;;;4951562;28;20252;-74
2022/01/07 04:42:49;;;;;;;25.38;11.45;;;1.90;99.90;;;;;;4952589;29;20212;-74
2022/01/07 04:45:36;;;;;;;25.40;10.98;;;2.00;99.90;;;;;;4950395;28;20267;-74
2022/01/07 04:48:21;;;;;;;24.42;10.82;;;2.00;99.90;;;;;;4952806;29;20264;-74
2022/01/07 04:51:08;;;;;;;23.70;11.27;;;2.10;99.90;;;;;;4953789;29;20284;-74
2022/01/07 04:53:54;;;;;;;22.00;9.90;;;2.20;99.90;;;;;;4950920;29;20579;-75
2022/01/07 04:56:40;;;;;;;18.77;8.95;;;2.20;99.90;;;;;;4953773;28;20268;-75
2022/01/07 04:59:26;;;;;;;17.95;10.88;;;2.30;99.90;;;;;;4946186;29;20256;-74
2022/01/07 05:02:11;;;;;;;21.52;10.95;;;2.30;99.90;;;;;;4950647;28;20228;-74
2022/01/07 05:04:57;;;;;;;16.02;10.82;;;2.30;99.90;;;;;;4946565;29;20200;-75
2022/01/07 05:07:44;;;;;;;25.25;12.30;;;2.30;99.90;;;;;;4951035;28;20232;-74
2022/01/07 05:10:30;;;;;;;22.70;11.43;;;2.30;99.90;;;;;;4946866;29;20207;-74
2022/01/07 05:13:16;;;;;;;20.42;11.82;;;2.30;99.90;;;;;;4949996;29;20240;-75
2022/01/07 05:16:01;;;;;;;21.05;12.30;;;2.30;99.90;;;;;;4951469;28;20267;-75
2022/01/07 05:18:47;;;;;;;21.40;13.20;;;2.20;99.90;;;;;;4947974;29;20689;-75
2022/01/07 05:21:33;;;;;;;19.85;13.57;;;2.20;99.90;;;;;;4951158;29;20212;-75
2022/01/07 05:24:20;;;;;;;24.83;12.25;;;2.30;99.90;;;;;;4945120;28;20336;-75
2022/01/07 05:27:06;;;;;;;22.73;12.90;;;2.30;99.90;;;;;;4950010;28;20232;-76
2022/01/07 05:29:51;;;;;;;22.48;13.38;;;2.40;99.90;;;;;;4950437;29;20272;-75
2022/01/07 05:32:37;;;;;;;24.55;13.05;;;2.40;99.90;;;;;;4949311;28;20347;-75
2022/01/07 05:35:25;;;;;;;21.13;12.65;;;2.40;99.90;;;;;;4948035;29;20340;-75
2022/01/07 05:38:11;;;;;;;22.98;13.80;;;2.40;99.90;;;;;;4950920;29;20248;-76
2022/01/07 05:40:58;;;;;;;16.23;11.60;;;2.50;99.90;;;;;;4955005;29;20333;-76
2022/01/07 05:43:44;;;;;;;23.30;13.73;;;2.60;99.90;;;;;;4950103;29;20210;-75
2022/01/07 05:46:30;;;;;;;21.58;13.35;;;2.60;99.90;;;;;;4953924;28;20244;-76
2022/01/07 05:49:15;;;;;;;19.77;12.25;;;2.60;99.90;;;;;;4967193;23;20337;-72
2022/01/07 05:52:01;;;;;;;21.77;11.50;;;2.60;99.90;;;;;;4949660;29;20332;-72
2022/01/07 05:54:48;;;;;;;20.23;13.00;;;2.70;99.90;;;;;;4938404;29;20315;-72
2022/01/07 05:57:35;;;;;;;19.85;12.52;;;2.70;99.90;;;;;;4951716;28;20233;-72
2022/01/07 06:00:21;;;;;;;23.08;12.63;;;2.80;99.90;;;;;;4929411;29;20236;-72
2022/01/07 06:03:06;;;;;;;25.33;12.30;;;2.80;99.90;;;;;;4933790;29;20221;-72
2022/01/07 06:05:52;;;;;;;16.27;11.50;;;2.80;99.90;;;;;;4935017;29;20208;-72
2022/01/07 06:08:37;;;;;;;17.10;9.73;;;2.80;99.90;;;;;;4934829;29;20366;-72
2022/01/07 06:11:23;;;;;;;17.85;9.18;;;2.80;99.90;;;;;;4930185;29;20208;-72
2022/01/07 06:14:09;;;;;;;13.32;9.32;;;2.80;99.90;;;;;;4931080;29;20220;-72
2022/01/07 06:16:55;;;;;;;18.35;9.15;;;2.80;99.90;;;;;;4935709;29;20257;-72
2022/01/07 06:19:41;;;;;;;17.13;9.20;;;2.80;99.90;;;;;;4934945;29;20329;-72
2022/01/07 06:22:27;;;;;;;17.92;9.82;;;2.70;99.90;;;;;;4932909;29;20204;-72
2022/01/07 06:25:13;;;;;;;23.58;9.00;;;2.80;99.90;;;;;;4935706;29;20572;-72
2022/01/07 06:27:58;;;;;;;16.42;9.52;;;2.70;99.90;;;;;;4935064;29;20237;-72
2022/01/07 06:30:46;;;;;;;16.17;7.55;;;2.70;99.90;;;;;;4936652;29;20349;-72
2022/01/07 06:33:31;;;;;;;17.85;8.55;;;2.70;99.90;;;;;;4931141;29;20301;-72
2022/01/07 06:36:17;;;;;;;11.88;8.57;;;2.80;99.90;;;;;;4928477;29;20260;-72
2022/01/07 06:39:03;;;;;;;16.17;7.63;;;2.90;99.90;;;;;;4934082;29;20252;-72
2022/01/07 06:41:50;;;;;;;19.33;7.90;;;2.90;99.90;;;;;;4932731;29;20219;-71
2022/01/07 06:44:36;;;;;;;15.13;7.20;;;2.90;99.90;;;;;;4933198;29;20261;-71
2022/01/07 06:47:23;;;;;;;14.10;8.25;;;2.90;99.90;;;;;;4935234;29;20204;-72
2022/01/07 06:50:09;;;;;;;13.57;8.05;;;3.00;99.90;;;;;;4935369;29;20197;-72
2022/01/07 06:52:55;;;;;;;19.58;8.77;;;3.00;99.90;;;;;;4930066;29;20638;-72
2022/01/07 06:55:41;;;;;;;13.68;8.65;;;3.00;99.90;;;;;;4931183;29;20338;-72
2022/01/07 06:58:27;;;;;;;13.27;8.32;;;3.00;99.90;;;;;;4934254;29;20599;-72
2022/01/07 07:01:12;;;;;;;12.90;7.05;;;3.00;99.90;;;;;;4933688;29;20341;-72
2022/01/07 07:03:59;;;;;;;14.95;8.05;;;3.00;99.90;;;;;;4925282;29;20208;-72
2022/01/07 07:06:45;;;;;;;13.02;7.03;;;3.00;99.90;;;;;;4934196;29;20197;-71
2022/01/07 07:09:31;;;;;;;10.15;7.07;;;3.00;99.90;;;;;;4935008;29;20235;-72
2022/01/07 07:12:16;;;;;;;11.65;7.70;;;3.00;99.90;;;;;;4930559;29;20213;-72
2022/01/07 07:15:02;;;;;;;14.48;7.90;;;3.00;99.90;;;;;;4935895;29;20228;-72
2022/01/07 07:17:48;;;;;;;10.73;8.00;;;3.00;99.90;;;;;;4934159;29;20300;-72
2022/01/07 07:20:35;;;;;;;12.88;8.02;;;2.90;99.90;;;;;;4932328;29;20345;-72
2022/01/07 07:23:21;;;;;;;17.92;8.88;;;3.00;99.90;;;;;;4931721;29;20208;-72
2022/01/07 07:26:06;;;;;;;15.48;8.80;;;3.00;99.90;;;;;;4937710;29;20213;-72
2022/01/07 07:28:52;;;;;;;11.85;8.68;;;3.00;99.90;;;;;;4933829;29;20237;-72
2022/01/07 07:31:41;;;;;;;14.27;8.02;;;2.90;99.90;;;;;;4926741;29;20252;-72
2022/01/07 07:37:32;;;;;;;26.40;10.05;;;2.90;99.90;;;;;;4933781;29;20272;-72
2022/01/07 07:40:18;;;;;;;23.60;9.45;;;2.90;99.90;;;;;;4933468;29;20208;-72
2022/01/07 07:43:03;;;;;;;17.85;9.50;;;2.90;99.90;;;;;;4930772;29;20586;-72
2022/01/07 07:45:49;;;;;;;19.63;10.60;;;2.90;99.90;;;;;;4934667;29;20209;-72
2022/01/07 07:48:35;;;;;;;23.17;10.45;;;3.00;99.90;;;;;;4932886;29;20237;-72
2022/01/07 07:51:20;;;;;;;24.02;10.70;;;3.00;99.90;;;;;;4930404;29;20209;-72
2022/01/07 07:54:09;;;;;;;20.73;11.20;;;3.00;99.90;;;;;;4934005;29;20287;-72
2022/01/07 07:56:57;;;;;;;15.25;9.15;;;2.90;99.90;;;;;;4932143;29;20200;-72
2022/01/07 07:59:43;;;;;;;19.65;11.05;;;2.80;99.90;;;;;;4933648;29;20572;-72
2022/01/07 08:02:30;;;;;;;13.43;9.93;;;2.70;99.90;;;;;;4926436;29;20690;-72
2022/01/07 08:05:16;;;;;;;18.58;9.15;;;2.80;99.90;;;;;;4932215;29;20208;-72
2022/01/07 08:08:02;;;;;;;14.68;10.48;;;2.80;99.90;;;;;;4932774;29;20361;-72
2022/01/07 08:10:52;;;;;;;16.13;9.27;;;2.90;99.90;;;;;;4930372;29;20899;-72
2022/01/07 08:16:42;;;;;;;22.25;10.75;;;2.90;99.90;;;;;;4932393;29;20212;-72
2022/01/07 08:19:27;;;;;;;13.05;9.70;;;2.80;99.90;;;;;;4932599;29;20241;-72
2022/01/07 08:22:13;;;;;;;17.75;10.65;;;2.70;99.90;;;;;;4921759;29;20311;-72
2022/01/07 08:24:59;;;;;;;20.63;10.80;;;2.80;99.90;;;;;;4933492;29;20583;-72
2022/01/07 08:27:45;;;;;;;24.00;10.75;;;2.80;99.90;;;;;;4932532;29;20704;-73
2022/01/07 08:30:36;;;;;;;16.40;11.18;;;2.80;99.90;;;;;;4925953;29;20216;-72
2022/01/07 08:36:27;;;;;;;21.58;12.15;;;2.80;99.90;;;;;;4930803;29;20204;-72
2022/01/07 08:39:13;;;;;;;14.48;10.95;;;2.70;99.90;;;;;;4933115;29;20221;-72
2022/01/07 08:41:59;;;;;;;22.70;11.93;;;2.60;99.90;;;;;;4927464;29;20213;-72
2022/01/07 08:44:46;;;;;;;23.30;12.77;;;2.60;99.90;;;;;;4933206;29;20209;-72
2022/01/07 08:47:32;;;;;;;16.00;10.30;;;2.60;99.90;;;;;;4929417;29;20338;-72
2022/01/07 08:50:18;;;;;;;24.55;12.52;;;2.60;99.90;;;;;;4932237;29;20257;-72
2022/01/07 08:53:03;;;;;;;21.35;12.95;;;2.60;99.90;;;;;;4933386;29;20686;-71
2022/01/07 08:55:49;;;;;;;19.08;12.15;;;2.70;99.90;;;;;;4929629;29;20579;-70
2022/01/07 08:58:35;;;;;;;16.90;11.48;;;2.80;99.90;;;;;;4928604;29;20233;-70
2022/01/07 09:01:22;;;;;;;22.20;12.10;;;2.80;99.90;;;;;;4925142;29;20216;-70
2022/01/07 09:04:08;;;;;;;22.77;12.68;;;2.70;99.90;;;;;;4929866;29;20275;-71
2022/01/07 09:06:53;;;;;;;20.33;12.60;;;2.70;99.90;;;;;;4932609;29;20353;-71
2022/01/07 09:09:39;;;;;;;21.00;11.70;;;2.70;99.90;;;;;;4933783;29;20333;-71
2022/01/07 09:12:25;;;;;;;15.82;11.35;;;2.70;99.90;;;;;;4936028;29;20288;-71
2022/01/07 09:15:12;;;;;;;17.02;10.50;;;2.60;99.90;;;;;;4936596;29;20229;-71
2022/01/07 09:17:59;;;;;;;21.80;12.00;;;2.60;99.90;;;;;;4935299;29;20224;-71
2022/01/07 09:20:46;;;;;;;18.15;10.82;;;2.60;99.90;;;;;;4929339;29;20695;-72
2022/01/07 09:23:32;;;;;;;15.48;10.68;;;2.60;99.90;;;;;;4933205;29;20279;-71
2022/01/07 09:26:17;;;;;;;15.27;10.60;;;2.60;99.90;;;;;;4938446;29;20220;-71
2022/01/07 09:29:03;;;;;;;17.58;11.77;;;2.60;99.90;;;;;;4935571;29;20237;-70
2022/01/07 09:31:49;;;;;;;19.20;9.88;;;2.60;99.90;;;;;;4929123;29;20559;-70
2022/01/07 09:34:36;;;;;;;16.20;10.60;;;2.60;99.90;;;;;;4936721;29;20708;-70
2022/01/07 09:37:22;;;;;;;18.75;10.80;;;2.70;99.90;;;;;;4931071;29;20248;-70
2022/01/07 09:40:09;;;;;;;25.02;10.73;;;2.70;99.90;;;;;;4930374;29;20289;-70
2022/01/07 09:42:56;;;;;;;16.27;8.90;;;2.80;99.90;;;;;;4934346;29;20248;-70
2022/01/07 09:45:42;;;;;;;15.32;10.00;;;2.90;99.90;;;;;;4934495;29;20695;-70
2022/01/07 09:48:27;;;;;;;13.70;8.95;;;2.90;99.90;;;;;;4929894;29;20316;-70
2022/01/07 09:51:15;;;;;;;16.85;9.68;;;3.00;99.90;;;;;;4933069;29;20209;-70
2022/01/07 09:54:03;;;;;;;14.27;9.00;;;3.00;99.90;;;;;;4928249;29;20232;-70
2022/01/07 09:56:49;;;;;;;14.80;8.05;;;3.00;99.90;;;;;;4941287;29;20216;-71
2022/01/07 09:59:35;;;;;;;13.85;8.80;;;3.00;99.90;;;;;;4931131;29;20279;-70
2022/01/07 10:02:22;;;;;;;15.98;8.65;;;3.00;99.90;;;;;;4929858;29;20782;-71
2022/01/07 10:05:18;;;;;;;14.65;8.20;;;3.00;99.90;;;;;;4936376;29;20196;-71
2022/01/07 10:08:25;;;;;;;17.63;8.55;;;2.90;99.90;;;;;;4931734;29;20304;-71
2022/01/07 10:11:18;;;;;;;16.23;7.68;;;3.00;99.90;;;;;;4932553;29;20795;-71
2022/01/07 10:14:18;;;;;;;13.90;8.27;;;2.90;99.90;;;;;;4934172;29;20236;-71
2022/01/07 10:17:05;;;;;;;14.70;9.90;;;2.90;99.90;;;;;;4933971;29;20213;-71
2022/01/07 10:19:51;;;;;;;15.02;8.35;;;2.90;99.90;;;;;;4932027;29;20341;-71
2022/01/07 10:22:51;;;;;;;32.78;16.17;;;2.80;99.90;;;;;;4936751;29;20329;-71
2022/01/07 10:25:40;;;;;;;11.25;8.63;;;2.90;99.90;;;;;;4936694;29;20204;-70
2022/01/07 10:28:30;;;;;;;14.50;8.55;;;3.00;99.90;;;;;;4941855;29;20225;-71
2022/01/07 10:31:22;;;;;;;15.48;8.73;;;3.00;99.90;;;;;;4919215;29;20723;-70
2022/01/07 10:34:08;;;;;;;13.45;8.27;;;3.00;99.90;;;;;;4936693;29;20284;-69
2022/01/07 10:36:53;;;;;;;8.57;6.72;;;3.00;99.90;;;;;;4936545;29;20204;-70
2022/01/07 10:39:39;;;;;;;13.07;7.90;;;3.10;99.90;;;;;;4932168;29;20565;-70
2022/01/07 10:42:27;;;;;;;12.88;7.00;;;3.10;99.90;;;;;;4930343;29;20331;-70
2022/01/07 10:45:13;;;;;;;13.80;7.45;;;3.10;99.90;;;;;;4934234;29;20848;-70
2022/01/07 10:47:58;;;;;;;13.43;7.75;;;3.10;99.90;;;;;;4934047;29;20237;-70
2022/01/07 10:50:46;;;;;;;10.60;6.82;;;3.10;99.90;;;;;;4920941;29;20214;-70
2022/01/07 10:53:32;;;;;;;13.25;7.03;;;3.00;99.90;;;;;;4932793;29;20283;-70
2022/01/07 10:56:19;;;;;;;18.33;8.10;;;2.90;99.90;;;;;;4933992;29;20281;-70
2022/01/07 10:59:07;;;;;;;10.73;6.55;;;2.90;99.90;;;;;;4930861;29;20236;-70
2022/01/07 11:01:58;;;;;;;14.15;7.70;;;2.80;99.90;;;;;;4933113;29;20307;-70
2022/01/07 11:04:43;;;;;;;13.95;7.93;;;2.90;99.90;;;;;;4931210;29;20205;-70
2022/01/07 11:07:29;;;;;;;14.48;8.05;;;2.90;99.90;;;;;;4929896;29;20616;-70
2022/01/07 11:10:15;;;;;;;9.95;8.20;;;3.00;99.90;;;;;;4932669;29;20209;-70
2022/01/07 11:13:01;;;;;;;12.73;7.35;;;3.10;99.90;;;;;;4934901;29;20204;-70
2022/01/07 11:15:49;;;;;;;10.75;7.25;;;3.00;99.90;;;;;;4933002;29;20227;-71
2022/01/07 11:18:37;;;;;;;13.32;7.97;;;3.00;99.90;;;;;;4932864;29;20718;-70
2022/01/07 11:21:23;;;;;;;11.52;6.40;;;3.10;99.90;;;;;;4923285;29;20217;-70
2022/01/07 11:24:42;;;;;;;12.45;7.45;;;3.10;99.90;;;;;;4933488;29;20200;-70
2022/01/07 11:27:29;;;;;;;14.05;7.43;;;3.00;99.90;;;;;;4934978;29;20228;-70
2022/01/07 11:30:18;;;;;;;12.50;7.15;;;3.00;99.90;;;;;;4932338;29;20697;-70
2022/01/07 11:33:17;;;;;;;9.73;7.95;;;3.00;99.90;;;;;;4933964;29;20249;-70
2022/01/07 11:36:02;;;;;;;14.32;8.00;;;3.10;99.90;;;;;;4935648;29;20225;-70
2022/01/07 11:38:48;;;;;;;7.55;5.95;;;3.10;99.90;;;;;;4929503;29;20333;-70
2022/01/07 11:41:44;;;;;;;10.65;7.03;;;3.00;99.90;;;;;;4916597;29;20720;-70
2022/01/07 11:44:31;;;;;;;8.40;6.28;;;3.00;99.90;;;;;;4933053;29;20209;-70
2022/01/07 11:47:24;;;;;;;11.20;6.55;;;3.10;99.90;;;;;;4935115;29;20209;-70
2022/01/07 11:50:11;;;;;;;10.40;6.95;;;3.10;99.90;;;;;;4918745;29;20306;-70
2022/01/07 11:52:58;;;;;;;12.52;7.40;;;3.10;99.90;;;;;;4916289;29;20201;-70
2022/01/07 11:55:44;;;;;;;10.35;6.60;;;3.10;99.90;;;;;;4916935;29;20699;-70
2022/01/07 11:58:39;;;;;;;10.13;6.57;;;3.20;99.90;;;;;;4926388;29;20545;-70
2022/01/07 12:01:27;;;;;;;10.05;6.90;;;3.20;99.90;;;;;;4927424;29;20205;-70
2022/01/07 12:04:27;;;;;;;11.35;6.40;;;3.10;99.90;;;;;;4928369;29;20257;-70
2022/01/07 12:07:14;;;;;;;15.10;7.18;;;3.10;99.90;;;;;;4933205;29;20722;-70
2022/01/07 12:10:12;;;;;;;11.55;7.63;;;3.20;99.90;;;;;;4918488;29;20205;-70
2022/01/07 12:13:00;;;;;;;11.73;6.82;;;3.20;99.90;;;;;;4926482;29;20209;-70
2022/01/07 12:15:55;;;;;;;9.43;6.72;;;3.20;99.90;;;;;;4933051;29;20228;-70
2022/01/07 12:18:40;;;;;;;12.07;7.20;;;3.10;99.90;;;;;;4925122;29;20310;-70
2022/01/07 12:21:26;;;;;;;9.95;7.38;;;3.10;99.90;;;;;;4918110;29;20725;-70
2022/01/07 12:24:15;;;;;;;13.10;8.35;;;3.20;99.90;;;;;;4932976;29;20201;-70
2022/01/07 12:27:04;;;;;;;23.08;10.25;;;3.20;99.90;;;;;;4939343;29;20208;-71
2022/01/07 12:29:55;;;;;;;17.15;8.60;;;3.20;99.90;;;;;;4928288;29;20209;-69
2022/01/07 12:32:41;;;;;;;12.73;7.68;;;3.20;99.90;;;;;;4929749;29;20688;-69
2022/01/07 12:35:30;;;;;;;12.98;8.18;;;3.10;99.90;;;;;;4934907;29;20260;-70
2022/01/07 12:38:20;;;;;;;10.88;8.52;;;3.10;99.90;;;;;;4931974;29;20248;-70
2022/01/07 12:41:07;;;;;;;14.90;8.15;;;3.10;99.90;;;;;;4934838;29;20675;-70
2022/01/07 12:44:05;;;;;;;11.38;7.15;;;3.10;99.90;;;;;;4934567;29;20289;-70
2022/01/07 12:46:53;;;;;;;15.15;8.20;;;3.10;99.90;;;;;;4934459;29;20200;-70
2022/01/07 12:49:40;;;;;;;17.65;9.57;;;3.10;99.90;;;;;;4934008;29;20224;-70
2022/01/07 12:52:29;;;;;;;16.83;8.05;;;3.10;99.90;;;;;;4934722;29;20272;-70
2022/01/07 12:55:18;;;;;;;16.45;8.15;;;3.20;99.90;;;;;;4934490;29;20292;-70
2022/01/07 12:58:06;;;;;;;11.85;7.85;;;3.30;99.90;;;;;;4934973;29;20592;-70
2022/01/07 13:00:52;;;;;;;11.27;7.10;;;3.30;99.90;;;;;;4934722;29;20204;-70
2022/01/07 13:03:38;;;;;;;10.23;7.13;;;3.30;99.90;;;;;;4934443;29;20265;-70
2022/01/07 13:06:23;;;;;;;10.65;7.72;;;3.30;99.90;;;;;;4934517;29;20659;-70
2022/01/07 13:09:09;;;;;;;9.57;6.15;;;3.30;99.90;;;;;;4932846;29;20232;-70
2022/01/07 13:11:58;;;;;;;12.30;7.13;;;3.40;99.90;;;;;;4934306;29;20208;-70
2022/01/07 13:14:48;;;;;;;14.30;7.35;;;3.40;99.90;;;;;;4934514;29;20205;-70
2022/01/07 13:17:34;;;;;;;16.42;7.53;;;3.50;99.90;;;;;;4921539;29;20228;-70
2022/01/07 13:20:29;;;;;;;10.50;6.07;;;3.50;99.90;;;;;;4934556;29;20196;-70
2022/01/07 13:23:15;;;;;;;10.55;6.82;;;3.50;99.90;;;;;;4934269;29;20555;-70
2022/01/07 13:26:01;;;;;;;10.70;7.60;;;3.40;99.90;;;;;;4930022;29;20220;-70
2022/01/07 13:28:48;;;;;;;12.75;7.55;;;3.30;99.90;;;;;;4930259;29;20353;-70
2022/01/07 13:31:37;;;;;;;11.45;7.50;;;3.20;99.90;;;;;;4931041;29;20265;-69
2022/01/07 13:34:23;;;;;;;8.68;6.70;;;3.30;99.90;;;;;;4933344;29;20201;-69
2022/01/07 13:37:10;;;;;;;9.55;7.05;;;3.30;99.90;;;;;;4927630;29;20210;-71
2022/01/07 13:39:56;;;;;;;10.10;6.90;;;3.30;99.90;;;;;;4915255;29;20554;-71
2022/01/07 13:42:42;;;;;;;10.50;7.57;;;3.30;99.90;;;;;;4915373;29;20193;-71
2022/01/07 13:45:27;;;;;;;8.38;5.95;;;3.30;99.90;;;;;;4915206;29;20657;-71
2022/01/07 13:48:15;;;;;;;12.82;8.50;;;3.30;99.90;;;;;;4918842;29;20237;-71
2022/01/07 13:51:10;;;;;;;12.65;7.72;;;3.30;99.90;;;;;;4934225;29;20193;-71
2022/01/07 13:54:21;;;;;;;9.45;7.15;;;3.20;99.90;;;;;;4934198;29;20273;-71
2022/01/07 13:57:09;;;;;;;13.32;8.30;;;3.20;99.90;;;;;;4923551;29;20221;-71
2022/01/07 13:59:55;;;;;;;10.95;8.65;;;3.10;99.90;;;;;;4937230;29;20306;-71
2022/01/07 14:02:46;;;;;;;10.40;8.00;;;3.20;99.90;;;;;;4937480;29;20324;-71
2022/01/07 14:05:34;;;;;;;10.52;7.70;;;3.20;99.90;;;;;;4937429;29;20205;-71
2022/01/07 14:08:21;;;;;;;12.15;8.30;;;3.30;99.90;;;;;;4935989;29;20307;-71
2022/01/07 14:11:12;;;;;;;15.38;8.10;;;3.30;99.90;;;;;;4937294;29;20193;-71
2022/01/07 14:14:13;;;;;;;10.45;7.88;;;3.20;99.90;;;;;;4937172;29;20681;-71
2022/01/07 14:16:59;;;;;;;11.70;8.68;;;3.30;99.90;;;;;;4928374;29;20705;-70
2022/01/07 14:19:55;;;;;;;13.25;7.70;;;3.30;99.90;;;;;;4918110;29;20683;-71
2022/01/07 14:22:44;;;;;;;17.10;9.30;;;3.40;99.90;;;;;;4917900;29;20672;-71
2022/01/07 14:25:30;;;;;;;10.88;7.72;;;3.50;99.90;;;;;;4925938;29;20190;-71
2022/01/07 14:28:18;;;;;;;15.02;7.97;;;3.50;99.90;;;;;;4930626;29;20353;-71
2022/01/07 14:31:04;;;;;;;11.73;8.32;;;3.50;99.90;;;;;;4932188;29;20253;-71
2022/01/07 14:33:49;;;;;;;10.80;7.38;;;3.50;99.90;;;;;;4932549;29;20271;-71
2022/01/07 14:36:35;;;;;;;11.90;8.70;;;3.50;99.90;;;;;;4930726;29;20337;-71